sensor_id;sensor_type;location;lat;lon;timestamp;P1;P2;P0
65012;PMS5003;51715;39.432;-77.518;2023-07-28T00:00:32;11;11;
65012;PMS5003;51715;39.432;-77.518;2023-07-28T00:03:01;16;15;
65012;PMS5003;51715;39.432;-77.518;2023-07-28T00:05:29;12;12;
65012;PMS5003;51715;39.432;-77.518;2023-07-28T00:07:56;11;10;
65012;PMS5003;51715;39.432;-77.518;2023-07-28T00:10:25;12;12;
65012;PMS5003;51715;39.432;-77.518;2023-07-28T00:12:55;12;12;
65012;PMS5003;51715;39.432;-77.518;2023-07-28T00:15:24;13;12;
65012;PMS5003;51715;39.432;-77.518;2023-07-28T00:17:52;14;14;
65012;PMS5003;51715;39.432;-77.518;2023-07-28T00:20:20;12;12;
65012;PMS5003;51715;39.432;-77.518;2023-07-28T00:22:48;10;10;
65012;PMS5003;51715;39.432;-77.518;2023-07-28T00:25:17;9;9;
65012;PMS5003;51715;39.432;-77.518;2023-07-28T00:27:46;12;12;
65012;PMS5003;51715;39.432;-77.518;2023-07-28T00:30:13;12;12;
65012;PMS5003;51715;39.432;-77.518;2023-07-28T00:32:41;12;11;
65012;PMS5003;51715;39.432;-77.518;2023-07-28T00:35:09;14;14;
65012;PMS5003;51715;39.432;-77.518;2023-07-28T00:37:37;11;11;
65012;PMS5003;51715;39.432;-77.518;2023-07-28T00:40:06;13;13;
65012;PMS5003;51715;39.432;-77.518;2023-07-28T00:42:34;13;13;
65012;PMS5003;51715;39.432;-77.518;2023-07-28T00:45:03;14;14;
65012;PMS5003;51715;39.432;-77.518;2023-07-28T00:47:32;10;10;
65012;PMS5003;51715;39.432;-77.518;2023-07-28T00:50:01;11;10;
65012;PMS5003;51715;39.432;-77.518;2023-07-28T00:52:29;12;11;
65012;PMS5003;51715;39.432;-77.518;2023-07-28T00:54:58;17;13;
65012;PMS5003;51715;39.432;-77.518;2023-07-28T00:57:27;10;10;
65012;PMS5003;51715;39.432;-77.518;2023-07-28T00:59:55;12;12;
65012;PMS5003;51715;39.432;-77.518;2023-07-28T01:02:24;13;12;
65012;PMS5003;51715;39.432;-77.518;2023-07-28T01:04:54;12;11;
65012;PMS5003;51715;39.432;-77.518;2023-07-28T01:07:23;16;15;
65012;PMS5003;51715;39.432;-77.518;2023-07-28T01:10:00;11;10;
65012;PMS5003;51715;39.432;-77.518;2023-07-28T01:12:34;12;12;
65012;PMS5003;51715;39.432;-77.518;2023-07-28T01:15:02;9;9;
65012;PMS5003;51715;39.432;-77.518;2023-07-28T01:17:30;9;9;
65012;PMS5003;51715;39.432;-77.518;2023-07-28T01:19:59;11;8;
65012;PMS5003;51715;39.432;-77.518;2023-07-28T01:22:33;14;12;
65012;PMS5003;51715;39.432;-77.518;2023-07-28T01:25:16;14;14;
65012;PMS5003;51715;39.432;-77.518;2023-07-28T01:27:48;15;13;
65012;PMS5003;51715;39.432;-77.518;2023-07-28T01:30:18;15;14;
65012;PMS5003;51715;39.432;-77.518;2023-07-28T01:32:48;13;12;
65012;PMS5003;51715;39.432;-77.518;2023-07-28T01:35:16;15;13;
65012;PMS5003;51715;39.432;-77.518;2023-07-28T01:37:45;19;16;
65012;PMS5003;51715;39.432;-77.518;2023-07-28T01:40:14;14;14;
65012;PMS5003;51715;39.432;-77.518;2023-07-28T01:42:42;11;8;
65012;PMS5003;51715;39.432;-77.518;2023-07-28T01:45:10;11;11;
65012;PMS5003;51715;39.432;-77.518;2023-07-28T01:47:39;16;15;
65012;PMS5003;51715;39.432;-77.518;2023-07-28T01:50:08;12;12;
65012;PMS5003;51715;39.432;-77.518;2023-07-28T01:52:36;14;14;
65012;PMS5003;51715;39.432;-77.518;2023-07-28T01:55:04;16;16;
65012;PMS5003;51715;39.432;-77.518;2023-07-28T01:57:33;17;17;
65012;PMS5003;51715;39.432;-77.518;2023-07-28T02:00:02;17;16;
65012;PMS5003;51715;39.432;-77.518;2023-07-28T02:02:31;15;15;
65012;PMS5003;51715;39.432;-77.518;2023-07-28T02:04:59;16;15;
65012;PMS5003;51715;39.432;-77.518;2023-07-28T02:07:27;16;15;
65012;PMS5003;51715;39.432;-77.518;2023-07-28T02:09:55;13;12;
65012;PMS5003;51715;39.432;-77.518;2023-07-28T02:12:23;13;13;
65012;PMS5003;51715;39.432;-77.518;2023-07-28T02:14:53;14;14;
65012;PMS5003;51715;39.432;-77.518;2023-07-28T02:17:20;14;14;
65012;PMS5003;51715;39.432;-77.518;2023-07-28T02:19:48;17;15;
65012;PMS5003;51715;39.432;-77.518;2023-07-28T02:22:17;16;14;
65012;PMS5003;51715;39.432;-77.518;2023-07-28T02:24:44;13;12;
65012;PMS5003;51715;39.432;-77.518;2023-07-28T02:27:13;12;10;
65012;PMS5003;51715;39.432;-77.518;2023-07-28T02:29:42;12;12;
65012;PMS5003;51715;39.432;-77.518;2023-07-28T02:32:10;13;13;
65012;PMS5003;51715;39.432;-77.518;2023-07-28T02:34:38;11;11;
65012;PMS5003;51715;39.432;-77.518;2023-07-28T02:37:07;16;15;
65012;PMS5003;51715;39.432;-77.518;2023-07-28T02:39:36;12;12;
65012;PMS5003;51715;39.432;-77.518;2023-07-28T02:42:03;16;15;
65012;PMS5003;51715;39.432;-77.518;2023-07-28T02:44:32;18;16;
65012;PMS5003;51715;39.432;-77.518;2023-07-28T02:47:01;12;12;
65012;PMS5003;51715;39.432;-77.518;2023-07-28T02:49:29;18;16;
65012;PMS5003;51715;39.432;-77.518;2023-07-28T02:51:57;17;16;
65012;PMS5003;51715;39.432;-77.518;2023-07-28T02:54:25;19;16;
65012;PMS5003;51715;39.432;-77.518;2023-07-28T02:56:54;17;15;
65012;PMS5003;51715;39.432;-77.518;2023-07-28T02:59:22;12;12;
65012;PMS5003;51715;39.432;-77.518;2023-07-28T03:01:50;19;17;
65012;PMS5003;51715;39.432;-77.518;2023-07-28T03:04:19;16;14;
65012;PMS5003;51715;39.432;-77.518;2023-07-28T03:06:47;14;12;
65012;PMS5003;51715;39.432;-77.518;2023-07-28T03:09:16;12;12;
65012;PMS5003;51715;39.432;-77.518;2023-07-28T03:11:44;13;11;
65012;PMS5003;51715;39.432;-77.518;2023-07-28T03:14:11;10;9;
65012;PMS5003;51715;39.432;-77.518;2023-07-28T03:16:40;13;11;
65012;PMS5003;51715;39.432;-77.518;2023-07-28T03:19:09;9;9;
65012;PMS5003;51715;39.432;-77.518;2023-07-28T03:21:37;16;14;
65012;PMS5003;51715;39.432;-77.518;2023-07-28T03:24:05;14;14;
65012;PMS5003;51715;39.432;-77.518;2023-07-28T03:26:34;13;12;
65012;PMS5003;51715;39.432;-77.518;2023-07-28T03:29:02;11;11;
65012;PMS5003;51715;39.432;-77.518;2023-07-28T03:31:30;12;12;
65012;PMS5003;51715;39.432;-77.518;2023-07-28T03:33:58;13;13;
65012;PMS5003;51715;39.432;-77.518;2023-07-28T03:36:26;12;12;
65012;PMS5003;51715;39.432;-77.518;2023-07-28T03:38:56;10;10;
65012;PMS5003;51715;39.432;-77.518;2023-07-28T03:41:23;15;15;
65012;PMS5003;51715;39.432;-77.518;2023-07-28T03:43:52;16;13;
65012;PMS5003;51715;39.432;-77.518;2023-07-28T03:46:21;15;13;
65012;PMS5003;51715;39.432;-77.518;2023-07-28T03:48:49;16;16;
65012;PMS5003;51715;39.432;-77.518;2023-07-28T03:51:17;10;10;
65012;PMS5003;51715;39.432;-77.518;2023-07-28T03:53:45;16;13;
65012;PMS5003;51715;39.432;-77.518;2023-07-28T03:56:14;17;16;
65012;PMS5003;51715;39.432;-77.518;2023-07-28T03:58:41;17;17;
65012;PMS5003;51715;39.432;-77.518;2023-07-28T04:03:55;15;15;
65012;PMS5003;51715;39.432;-77.518;2023-07-28T04:06:39;18;18;
65012;PMS5003;51715;39.432;-77.518;2023-07-28T04:09:09;14;14;
65012;PMS5003;51715;39.432;-77.518;2023-07-28T04:11:38;14;14;
65012;PMS5003;51715;39.432;-77.518;2023-07-28T04:14:06;13;13;
65012;PMS5003;51715;39.432;-77.518;2023-07-28T04:16:34;13;13;
65012;PMS5003;51715;39.432;-77.518;2023-07-28T04:19:03;18;15;
65012;PMS5003;51715;39.432;-77.518;2023-07-28T04:21:31;15;15;
65012;PMS5003;51715;39.432;-77.518;2023-07-28T04:23:59;15;14;
65012;PMS5003;51715;39.432;-77.518;2023-07-28T04:26:27;15;15;
65012;PMS5003;51715;39.432;-77.518;2023-07-28T04:28:56;15;15;
65012;PMS5003;51715;39.432;-77.518;2023-07-28T04:31:24;17;14;
65012;PMS5003;51715;39.432;-77.518;2023-07-28T04:33:53;18;16;
65012;PMS5003;51715;39.432;-77.518;2023-07-28T04:36:21;13;12;
65012;PMS5003;51715;39.432;-77.518;2023-07-28T04:38:49;12;12;
65012;PMS5003;51715;39.432;-77.518;2023-07-28T04:41:16;12;12;
65012;PMS5003;51715;39.432;-77.518;2023-07-28T04:43:44;14;13;
65012;PMS5003;51715;39.432;-77.518;2023-07-28T04:46:12;14;14;
65012;PMS5003;51715;39.432;-77.518;2023-07-28T04:48:41;19;14;
65012;PMS5003;51715;39.432;-77.518;2023-07-28T04:51:09;17;14;
65012;PMS5003;51715;39.432;-77.518;2023-07-28T04:53:38;13;12;
65012;PMS5003;51715;39.432;-77.518;2023-07-28T04:56:05;18;15;
65012;PMS5003;51715;39.432;-77.518;2023-07-28T04:58:33;15;13;
65012;PMS5003;51715;39.432;-77.518;2023-07-28T05:01:01;15;15;
65012;PMS5003;51715;39.432;-77.518;2023-07-28T05:03:29;14;14;
65012;PMS5003;51715;39.432;-77.518;2023-07-28T05:05:56;17;15;
65012;PMS5003;51715;39.432;-77.518;2023-07-28T05:08:24;20;17;
65012;PMS5003;51715;39.432;-77.518;2023-07-28T05:10:52;18;16;
65012;PMS5003;51715;39.432;-77.518;2023-07-28T05:13:22;20;19;
65012;PMS5003;51715;39.432;-77.518;2023-07-28T05:15:50;19;19;
65012;PMS5003;51715;39.432;-77.518;2023-07-28T05:18:19;21;20;
65012;PMS5003;51715;39.432;-77.518;2023-07-28T05:20:47;21;19;
65012;PMS5003;51715;39.432;-77.518;2023-07-28T05:23:15;25;21;
65012;PMS5003;51715;39.432;-77.518;2023-07-28T05:25:43;23;21;
65012;PMS5003;51715;39.432;-77.518;2023-07-28T05:28:12;24;22;
65012;PMS5003;51715;39.432;-77.518;2023-07-28T05:30:39;24;23;
65012;PMS5003;51715;39.432;-77.518;2023-07-28T05:33:08;23;23;
65012;PMS5003;51715;39.432;-77.518;2023-07-28T05:35:36;22;22;
65012;PMS5003;51715;39.432;-77.518;2023-07-28T05:38:04;22;21;
65012;PMS5003;51715;39.432;-77.518;2023-07-28T05:40:32;22;18;
65012;PMS5003;51715;39.432;-77.518;2023-07-28T05:43:00;21;20;
65012;PMS5003;51715;39.432;-77.518;2023-07-28T05:45:28;20;19;
65012;PMS5003;51715;39.432;-77.518;2023-07-28T05:47:56;24;23;
65012;PMS5003;51715;39.432;-77.518;2023-07-28T05:50:24;20;17;
65012;PMS5003;51715;39.432;-77.518;2023-07-28T05:52:52;20;18;
65012;PMS5003;51715;39.432;-77.518;2023-07-28T05:55:20;23;21;
65012;PMS5003;51715;39.432;-77.518;2023-07-28T05:57:48;18;16;
65012;PMS5003;51715;39.432;-77.518;2023-07-28T06:00:16;21;21;
65012;PMS5003;51715;39.432;-77.518;2023-07-28T06:02:45;21;21;
65012;PMS5003;51715;39.432;-77.518;2023-07-28T06:05:13;18;16;
65012;PMS5003;51715;39.432;-77.518;2023-07-28T06:07:41;21;20;
65012;PMS5003;51715;39.432;-77.518;2023-07-28T06:10:09;20;20;
65012;PMS5003;51715;39.432;-77.518;2023-07-28T06:12:38;21;21;
65012;PMS5003;51715;39.432;-77.518;2023-07-28T06:15:06;27;25;
65012;PMS5003;51715;39.432;-77.518;2023-07-28T06:17:35;19;19;
65012;PMS5003;51715;39.432;-77.518;2023-07-28T06:20:04;21;21;
65012;PMS5003;51715;39.432;-77.518;2023-07-28T06:22:33;22;22;
65012;PMS5003;51715;39.432;-77.518;2023-07-28T06:25:01;18;17;
65012;PMS5003;51715;39.432;-77.518;2023-07-28T06:27:30;25;22;
65012;PMS5003;51715;39.432;-77.518;2023-07-28T06:29:58;23;22;
65012;PMS5003;51715;39.432;-77.518;2023-07-28T06:32:25;22;22;
65012;PMS5003;51715;39.432;-77.518;2023-07-28T06:34:53;22;20;
65012;PMS5003;51715;39.432;-77.518;2023-07-28T06:37:22;25;24;
65012;PMS5003;51715;39.432;-77.518;2023-07-28T06:39:50;15;15;
65012;PMS5003;51715;39.432;-77.518;2023-07-28T06:42:18;28;24;
65012;PMS5003;51715;39.432;-77.518;2023-07-28T06:44:46;26;25;
65012;PMS5003;51715;39.432;-77.518;2023-07-28T06:47:15;20;19;
65012;PMS5003;51715;39.432;-77.518;2023-07-28T06:49:43;23;23;
65012;PMS5003;51715;39.432;-77.518;2023-07-28T06:52:11;20;20;
65012;PMS5003;51715;39.432;-77.518;2023-07-28T06:54:39;22;22;
65012;PMS5003;51715;39.432;-77.518;2023-07-28T06:57:07;26;24;
65012;PMS5003;51715;39.432;-77.518;2023-07-28T06:59:36;22;21;
65012;PMS5003;51715;39.432;-77.518;2023-07-28T07:02:04;22;22;
65012;PMS5003;51715;39.432;-77.518;2023-07-28T07:04:33;19;19;
65012;PMS5003;51715;39.432;-77.518;2023-07-28T07:07:01;21;21;
65012;PMS5003;51715;39.432;-77.518;2023-07-28T07:09:29;19;19;
65012;PMS5003;51715;39.432;-77.518;2023-07-28T07:11:58;19;19;
65012;PMS5003;51715;39.432;-77.518;2023-07-28T07:14:26;21;19;
65012;PMS5003;51715;39.432;-77.518;2023-07-28T07:16:53;25;25;
65012;PMS5003;51715;39.432;-77.518;2023-07-28T07:19:22;24;23;
65012;PMS5003;51715;39.432;-77.518;2023-07-28T07:21:50;22;20;
65012;PMS5003;51715;39.432;-77.518;2023-07-28T07:24:19;20;20;
65012;PMS5003;51715;39.432;-77.518;2023-07-28T07:26:47;18;18;
65012;PMS5003;51715;39.432;-77.518;2023-07-28T07:29:15;30;26;
65012;PMS5003;51715;39.432;-77.518;2023-07-28T07:31:44;19;18;
65012;PMS5003;51715;39.432;-77.518;2023-07-28T07:34:12;19;19;
65012;PMS5003;51715;39.432;-77.518;2023-07-28T07:36:40;17;16;
65012;PMS5003;51715;39.432;-77.518;2023-07-28T07:39:09;18;18;
65012;PMS5003;51715;39.432;-77.518;2023-07-28T07:41:37;21;18;
65012;PMS5003;51715;39.432;-77.518;2023-07-28T07:44:05;21;19;
65012;PMS5003;51715;39.432;-77.518;2023-07-28T07:46:33;18;18;
65012;PMS5003;51715;39.432;-77.518;2023-07-28T07:49:00;19;18;
65012;PMS5003;51715;39.432;-77.518;2023-07-28T07:51:28;20;17;
65012;PMS5003;51715;39.432;-77.518;2023-07-28T07:53:56;22;21;
65012;PMS5003;51715;39.432;-77.518;2023-07-28T07:56:24;17;17;
65012;PMS5003;51715;39.432;-77.518;2023-07-28T07:58:53;21;20;
65012;PMS5003;51715;39.432;-77.518;2023-07-28T08:01:21;21;21;
65012;PMS5003;51715;39.432;-77.518;2023-07-28T08:03:50;22;21;
65012;PMS5003;51715;39.432;-77.518;2023-07-28T08:06:18;15;15;
65012;PMS5003;51715;39.432;-77.518;2023-07-28T08:08:46;21;20;
65012;PMS5003;51715;39.432;-77.518;2023-07-28T08:11:15;23;21;
65012;PMS5003;51715;39.432;-77.518;2023-07-28T08:13:43;20;18;
65012;PMS5003;51715;39.432;-77.518;2023-07-28T08:16:11;16;16;
65012;PMS5003;51715;39.432;-77.518;2023-07-28T08:18:39;20;20;
65012;PMS5003;51715;39.432;-77.518;2023-07-28T08:21:06;18;18;
65012;PMS5003;51715;39.432;-77.518;2023-07-28T08:23:35;27;24;
65012;PMS5003;51715;39.432;-77.518;2023-07-28T08:26:03;19;18;
65012;PMS5003;51715;39.432;-77.518;2023-07-28T08:28:31;20;19;
65012;PMS5003;51715;39.432;-77.518;2023-07-28T08:30:59;20;18;
65012;PMS5003;51715;39.432;-77.518;2023-07-28T08:33:27;24;24;
65012;PMS5003;51715;39.432;-77.518;2023-07-28T08:35:56;22;22;
65012;PMS5003;51715;39.432;-77.518;2023-07-28T08:38:24;23;21;
65012;PMS5003;51715;39.432;-77.518;2023-07-28T08:40:52;21;21;
65012;PMS5003;51715;39.432;-77.518;2023-07-28T08:43:20;21;21;
65012;PMS5003;51715;39.432;-77.518;2023-07-28T08:45:48;18;18;
65012;PMS5003;51715;39.432;-77.518;2023-07-28T08:48:17;26;24;
65012;PMS5003;51715;39.432;-77.518;2023-07-28T08:50:45;23;19;
65012;PMS5003;51715;39.432;-77.518;2023-07-28T08:53:13;21;21;
65012;PMS5003;51715;39.432;-77.518;2023-07-28T08:55:41;24;24;
65012;PMS5003;51715;39.432;-77.518;2023-07-28T08:58:17;21;21;
65012;PMS5003;51715;39.432;-77.518;2023-07-28T09:00:46;22;22;
65012;PMS5003;51715;39.432;-77.518;2023-07-28T09:03:15;18;17;
65012;PMS5003;51715;39.432;-77.518;2023-07-28T09:05:44;19;15;
65012;PMS5003;51715;39.432;-77.518;2023-07-28T09:08:13;17;17;
65012;PMS5003;51715;39.432;-77.518;2023-07-28T09:10:43;21;21;
65012;PMS5003;51715;39.432;-77.518;2023-07-28T09:13:12;23;22;
65012;PMS5003;51715;39.432;-77.518;2023-07-28T09:15:40;25;24;
65012;PMS5003;51715;39.432;-77.518;2023-07-28T09:18:08;20;17;
65012;PMS5003;51715;39.432;-77.518;2023-07-28T09:20:37;28;23;
65012;PMS5003;51715;39.432;-77.518;2023-07-28T09:23:07;17;16;
65012;PMS5003;51715;39.432;-77.518;2023-07-28T09:25:35;16;16;
65012;PMS5003;51715;39.432;-77.518;2023-07-28T09:28:04;21;20;
65012;PMS5003;51715;39.432;-77.518;2023-07-28T09:30:48;18;18;
65012;PMS5003;51715;39.432;-77.518;2023-07-28T09:33:28;25;24;
65012;PMS5003;51715;39.432;-77.518;2023-07-28T09:36:04;19;19;
65012;PMS5003;51715;39.432;-77.518;2023-07-28T09:38:36;20;17;
65012;PMS5003;51715;39.432;-77.518;2023-07-28T09:41:05;24;22;
65012;PMS5003;51715;39.432;-77.518;2023-07-28T09:43:34;20;19;
65012;PMS5003;51715;39.432;-77.518;2023-07-28T09:46:03;21;20;
65012;PMS5003;51715;39.432;-77.518;2023-07-28T09:48:32;19;19;
65012;PMS5003;51715;39.432;-77.518;2023-07-28T09:51:04;27;25;
65012;PMS5003;51715;39.432;-77.518;2023-07-28T09:53:40;22;19;
65012;PMS5003;51715;39.432;-77.518;2023-07-28T09:56:13;20;20;
65012;PMS5003;51715;39.432;-77.518;2023-07-28T09:58:44;20;18;
65012;PMS5003;51715;39.432;-77.518;2023-07-28T10:01:19;21;20;
65012;PMS5003;51715;39.432;-77.518;2023-07-28T10:03:47;20;19;
65012;PMS5003;51715;39.432;-77.518;2023-07-28T10:06:15;16;14;
65012;PMS5003;51715;39.432;-77.518;2023-07-28T10:08:45;17;16;
65012;PMS5003;51715;39.432;-77.518;2023-07-28T10:11:14;19;19;
65012;PMS5003;51715;39.432;-77.518;2023-07-28T10:13:44;20;16;
65012;PMS5003;51715;39.432;-77.518;2023-07-28T10:16:13;21;18;
65012;PMS5003;51715;39.432;-77.518;2023-07-28T10:18:42;22;18;
65012;PMS5003;51715;39.432;-77.518;2023-07-28T10:21:20;17;16;
65012;PMS5003;51715;39.432;-77.518;2023-07-28T10:23:53;21;21;
65012;PMS5003;51715;39.432;-77.518;2023-07-28T10:26:30;19;17;
65012;PMS5003;51715;39.432;-77.518;2023-07-28T10:29:10;23;18;
65012;PMS5003;51715;39.432;-77.518;2023-07-28T10:31:55;23;21;
65012;PMS5003;51715;39.432;-77.518;2023-07-28T10:34:23;20;20;
65012;PMS5003;51715;39.432;-77.518;2023-07-28T10:36:59;19;17;
65012;PMS5003;51715;39.432;-77.518;2023-07-28T10:39:27;18;17;
65012;PMS5003;51715;39.432;-77.518;2023-07-28T10:42:04;23;21;
65012;PMS5003;51715;39.432;-77.518;2023-07-28T10:44:34;17;16;
65012;PMS5003;51715;39.432;-77.518;2023-07-28T10:47:07;19;18;
65012;PMS5003;51715;39.432;-77.518;2023-07-28T10:49:35;23;22;
65012;PMS5003;51715;39.432;-77.518;2023-07-28T10:52:03;21;21;
65012;PMS5003;51715;39.432;-77.518;2023-07-28T10:54:31;20;20;
65012;PMS5003;51715;39.432;-77.518;2023-07-28T10:57:01;20;18;
65012;PMS5003;51715;39.432;-77.518;2023-07-28T10:59:29;22;20;
65012;PMS5003;51715;39.432;-77.518;2023-07-28T11:01:58;21;18;
65012;PMS5003;51715;39.432;-77.518;2023-07-28T11:04:26;22;22;
65012;PMS5003;51715;39.432;-77.518;2023-07-28T11:06:55;16;16;
65012;PMS5003;51715;39.432;-77.518;2023-07-28T11:09:23;18;18;
65012;PMS5003;51715;39.432;-77.518;2023-07-28T11:11:52;23;23;
65012;PMS5003;51715;39.432;-77.518;2023-07-28T11:14:19;29;28;
65012;PMS5003;51715;39.432;-77.518;2023-07-28T11:16:48;27;24;
65012;PMS5003;51715;39.432;-77.518;2023-07-28T11:19:16;22;22;
65012;PMS5003;51715;39.432;-77.518;2023-07-28T11:21:45;26;26;
65012;PMS5003;51715;39.432;-77.518;2023-07-28T11:24:17;29;25;
65012;PMS5003;51715;39.432;-77.518;2023-07-28T11:26:46;22;20;
65012;PMS5003;51715;39.432;-77.518;2023-07-28T11:29:15;28;27;
65012;PMS5003;51715;39.432;-77.518;2023-07-28T11:31:44;23;23;
65012;PMS5003;51715;39.432;-77.518;2023-07-28T11:34:13;27;25;
65012;PMS5003;51715;39.432;-77.518;2023-07-28T11:36:42;20;20;
65012;PMS5003;51715;39.432;-77.518;2023-07-28T11:39:10;25;25;
65012;PMS5003;51715;39.432;-77.518;2023-07-28T11:41:39;25;23;
65012;PMS5003;51715;39.432;-77.518;2023-07-28T11:44:08;22;22;
65012;PMS5003;51715;39.432;-77.518;2023-07-28T11:46:36;30;30;
65012;PMS5003;51715;39.432;-77.518;2023-07-28T11:49:08;29;28;
65012;PMS5003;51715;39.432;-77.518;2023-07-28T11:51:38;21;21;
65012;PMS5003;51715;39.432;-77.518;2023-07-28T11:54:07;26;24;
65012;PMS5003;51715;39.432;-77.518;2023-07-28T11:56:37;25;24;
65012;PMS5003;51715;39.432;-77.518;2023-07-28T11:59:06;32;31;
65012;PMS5003;51715;39.432;-77.518;2023-07-28T12:01:33;25;24;
65012;PMS5003;51715;39.432;-77.518;2023-07-28T12:04:18;26;24;
65012;PMS5003;51715;39.432;-77.518;2023-07-28T12:07:19;27;27;
65012;PMS5003;51715;39.432;-77.518;2023-07-28T12:09:54;19;19;
65012;PMS5003;51715;39.432;-77.518;2023-07-28T12:12:24;27;27;
65012;PMS5003;51715;39.432;-77.518;2023-07-28T12:14:53;28;27;
65012;PMS5003;51715;39.432;-77.518;2023-07-28T12:17:23;22;22;
65012;PMS5003;51715;39.432;-77.518;2023-07-28T12:19:57;22;22;
65012;PMS5003;51715;39.432;-77.518;2023-07-28T12:22:27;18;18;
65012;PMS5003;51715;39.432;-77.518;2023-07-28T12:24:55;24;24;
65012;PMS5003;51715;39.432;-77.518;2023-07-28T12:27:23;26;25;
65012;PMS5003;51715;39.432;-77.518;2023-07-28T12:29:52;24;22;
65012;PMS5003;51715;39.432;-77.518;2023-07-28T12:32:21;24;22;
65012;PMS5003;51715;39.432;-77.518;2023-07-28T12:34:49;22;22;
65012;PMS5003;51715;39.432;-77.518;2023-07-28T12:37:18;24;21;
65012;PMS5003;51715;39.432;-77.518;2023-07-28T12:39:47;22;20;
65012;PMS5003;51715;39.432;-77.518;2023-07-28T12:42:15;21;21;
65012;PMS5003;51715;39.432;-77.518;2023-07-28T12:44:44;18;18;
65012;PMS5003;51715;39.432;-77.518;2023-07-28T12:47:12;25;24;
65012;PMS5003;51715;39.432;-77.518;2023-07-28T12:49:40;25;24;
65012;PMS5003;51715;39.432;-77.518;2023-07-28T12:52:09;22;21;
65012;PMS5003;51715;39.432;-77.518;2023-07-28T12:54:38;21;21;
65012;PMS5003;51715;39.432;-77.518;2023-07-28T12:57:06;25;23;
65012;PMS5003;51715;39.432;-77.518;2023-07-28T12:59:34;21;21;
65012;PMS5003;51715;39.432;-77.518;2023-07-28T13:02:02;25;24;
65012;PMS5003;51715;39.432;-77.518;2023-07-28T13:04:31;20;19;
65012;PMS5003;51715;39.432;-77.518;2023-07-28T13:06:59;20;20;
65012;PMS5003;51715;39.432;-77.518;2023-07-28T13:09:28;20;20;
65012;PMS5003;51715;39.432;-77.518;2023-07-28T13:11:56;26;23;
65012;PMS5003;51715;39.432;-77.518;2023-07-28T13:14:24;25;23;
65012;PMS5003;51715;39.432;-77.518;2023-07-28T13:16:52;25;22;
65012;PMS5003;51715;39.432;-77.518;2023-07-28T13:19:20;26;24;
65012;PMS5003;51715;39.432;-77.518;2023-07-28T13:21:48;24;24;
65012;PMS5003;51715;39.432;-77.518;2023-07-28T13:24:17;22;22;
65012;PMS5003;51715;39.432;-77.518;2023-07-28T13:26:45;24;24;
65012;PMS5003;51715;39.432;-77.518;2023-07-28T13:29:15;27;27;
65012;PMS5003;51715;39.432;-77.518;2023-07-28T13:31:43;25;24;
65012;PMS5003;51715;39.432;-77.518;2023-07-28T13:34:12;28;26;
65012;PMS5003;51715;39.432;-77.518;2023-07-28T13:36:41;23;22;
65012;PMS5003;51715;39.432;-77.518;2023-07-28T13:39:09;24;22;
65012;PMS5003;51715;39.432;-77.518;2023-07-28T13:41:37;29;26;
65012;PMS5003;51715;39.432;-77.518;2023-07-28T13:44:06;27;26;
65012;PMS5003;51715;39.432;-77.518;2023-07-28T13:46:34;28;26;
65012;PMS5003;51715;39.432;-77.518;2023-07-28T13:49:02;23;23;
65012;PMS5003;51715;39.432;-77.518;2023-07-28T13:51:30;25;23;
65012;PMS5003;51715;39.432;-77.518;2023-07-28T13:53:58;23;23;
65012;PMS5003;51715;39.432;-77.518;2023-07-28T13:56:26;24;22;
65012;PMS5003;51715;39.432;-77.518;2023-07-28T13:58:55;24;24;
65012;PMS5003;51715;39.432;-77.518;2023-07-28T14:01:24;18;18;
65012;PMS5003;51715;39.432;-77.518;2023-07-28T14:03:52;24;23;
65012;PMS5003;51715;39.432;-77.518;2023-07-28T14:06:20;20;20;
65012;PMS5003;51715;39.432;-77.518;2023-07-28T14:08:49;24;22;
65012;PMS5003;51715;39.432;-77.518;2023-07-28T14:11:16;19;19;
65012;PMS5003;51715;39.432;-77.518;2023-07-28T14:13:45;20;20;
65012;PMS5003;51715;39.432;-77.518;2023-07-28T14:16:12;27;27;
65012;PMS5003;51715;39.432;-77.518;2023-07-28T14:18:41;25;24;
65012;PMS5003;51715;39.432;-77.518;2023-07-28T14:21:09;26;25;
65012;PMS5003;51715;39.432;-77.518;2023-07-28T14:23:37;27;26;
65012;PMS5003;51715;39.432;-77.518;2023-07-28T14:26:05;25;24;
65012;PMS5003;51715;39.432;-77.518;2023-07-28T14:28:34;24;24;
65012;PMS5003;51715;39.432;-77.518;2023-07-28T14:31:02;21;21;
65012;PMS5003;51715;39.432;-77.518;2023-07-28T14:33:30;27;25;
65012;PMS5003;51715;39.432;-77.518;2023-07-28T14:35:59;22;21;
65012;PMS5003;51715;39.432;-77.518;2023-07-28T14:38:28;24;21;
65012;PMS5003;51715;39.432;-77.518;2023-07-28T14:40:55;25;25;
65012;PMS5003;51715;39.432;-77.518;2023-07-28T14:43:24;24;23;
65012;PMS5003;51715;39.432;-77.518;2023-07-28T14:45:53;21;21;
65012;PMS5003;51715;39.432;-77.518;2023-07-28T14:48:23;22;22;
65012;PMS5003;51715;39.432;-77.518;2023-07-28T14:50:50;23;23;
65012;PMS5003;51715;39.432;-77.518;2023-07-28T14:53:34;25;24;
65012;PMS5003;51715;39.432;-77.518;2023-07-28T14:56:05;28;27;
65012;PMS5003;51715;39.432;-77.518;2023-07-28T14:58:34;25;24;
65012;PMS5003;51715;39.432;-77.518;2023-07-28T15:01:02;23;23;
65012;PMS5003;51715;39.432;-77.518;2023-07-28T15:03:30;24;24;
65012;PMS5003;51715;39.432;-77.518;2023-07-28T15:05:59;27;27;
65012;PMS5003;51715;39.432;-77.518;2023-07-28T15:08:28;23;22;
65012;PMS5003;51715;39.432;-77.518;2023-07-28T15:10:57;23;23;
65012;PMS5003;51715;39.432;-77.518;2023-07-28T15:13:25;26;26;
65012;PMS5003;51715;39.432;-77.518;2023-07-28T15:15:54;26;26;
65012;PMS5003;51715;39.432;-77.518;2023-07-28T15:18:23;29;24;
65012;PMS5003;51715;39.432;-77.518;2023-07-28T15:20:51;22;22;
65012;PMS5003;51715;39.432;-77.518;2023-07-28T15:23:20;27;26;
65012;PMS5003;51715;39.432;-77.518;2023-07-28T15:25:48;21;21;
65012;PMS5003;51715;39.432;-77.518;2023-07-28T15:28:16;28;25;
65012;PMS5003;51715;39.432;-77.518;2023-07-28T15:30:45;22;22;
65012;PMS5003;51715;39.432;-77.518;2023-07-28T15:33:13;25;23;
65012;PMS5003;51715;39.432;-77.518;2023-07-28T15:35:41;27;25;
65012;PMS5003;51715;39.432;-77.518;2023-07-28T15:38:10;27;24;
65012;PMS5003;51715;39.432;-77.518;2023-07-28T15:40:38;24;23;
65012;PMS5003;51715;39.432;-77.518;2023-07-28T15:43:06;25;24;
65012;PMS5003;51715;39.432;-77.518;2023-07-28T15:45:34;27;26;
65012;PMS5003;51715;39.432;-77.518;2023-07-28T15:48:03;25;23;
65012;PMS5003;51715;39.432;-77.518;2023-07-28T15:50:31;24;24;
65012;PMS5003;51715;39.432;-77.518;2023-07-28T15:52:59;25;25;
65012;PMS5003;51715;39.432;-77.518;2023-07-28T15:55:27;28;25;
65012;PMS5003;51715;39.432;-77.518;2023-07-28T15:57:55;30;27;
65012;PMS5003;51715;39.432;-77.518;2023-07-28T16:00:23;29;25;